Terminal Aerodrome Forecast
Issued by NWS

Home | Current Version | Previous Version | Text Only | Print | Product List | Glossary On
Versions: 1 2 3 4 5 6 7 8 9 10 11 12 13 14 15 16 17 18 19
000
FTUS41 KAKQ 110000 AAA
TAFPHF
TAF AMD
KPHF 110035Z 1101/1124 VRB03KT P6SM BKN015 OVC100
      TEMPO 1101/1105 SCT015
     FM110600 10003KT 5SM -RA BR BKN007 BKN015
     FM111500 26006KT P6SM OVC020
     FM111600 09009KT P6SM BKN050=

USA.gov is the U.S. government's official web portal to all federal, state and local government web resources and services.